Terminal Aerodrome Forecast
Issued by NWS Paducah, KY

Home | Current Version | Previous Version | Text Only | Print | Product List | Glossary On
Versions: 1 2 3 4 5 6 7 8 9 10 11 12 13 14
000
FTUS43 KPAH 182300
TAFEVV
TAF
KEVV 182328Z 1900/1924 36003KT P6SM SCT015 OVC040
      TEMPO 1902/1905 BKN025
     FM190500 01002KT P6SM OVC035
      TEMPO 1908/1912 5SM BR BKN015
     FM191500 02003KT P6SM OVC050=

USA.gov is the U.S. government's official web portal to all federal, state and local government web resources and services.